Time;durP1;ratioP1;P1;durP2;ratioP2;P2;SDS_P1;SDS_P2;PMS_P1;PMS_P2;Temp;Humidity;BMP_temperature;BMP_pressure;BME280_temperature;BME280_humidity;BME280_pressure;Samples;Min_cycle;Max_cycle;Signal;HPM_P1;HPM_P2
2023/07/02 00:01:03;;;;;;;10.40;7.40;;;;;;;;;;12920325;22;20364;-85
2023/07/02 00:06:08;;;;;;;12.38;8.18;;;;;;;;;;12919944;22;20431;-84
2023/07/02 00:11:12;;;;;;;13.07;9.25;;;;;;;;;;12920096;22;20921;-85
2023/07/02 00:16:14;;;;;;;12.30;9.35;;;;;;;;;;12919603;22;20493;-84
2023/07/02 00:21:19;;;;;;;13.67;10.57;;;;;;;;;;12919614;22;20906;-86
2023/07/02 00:26:21;;;;;;;13.57;10.05;;;;;;;;;;12919353;22;20820;-85
2023/07/02 00:31:24;;;;;;;13.57;9.80;;;;;;;;;;12919746;22;20426;-85
2023/07/02 00:36:28;;;;;;;15.77;10.60;;;;;;;;;;12919173;22;20384;-85
2023/07/02 00:41:30;;;;;;;14.27;10.32;;;;;;;;;;12917797;22;20748;-85
2023/07/02 00:46:32;;;;;;;13.77;10.47;;;;;;;;;;12920096;23;20699;-85
2023/07/02 00:51:37;;;;;;;14.80;11.40;;;;;;;;;;12916162;22;20828;-83
2023/07/02 00:56:39;;;;;;;15.60;11.75;;;;;;;;;;12933798;23;20377;-86
2023/07/02 01:01:41;;;;;;;15.93;12.43;;;;;;;;;;12911507;22;20365;-84
2023/07/02 01:06:45;;;;;;;16.30;11.98;;;;;;;;;;12914671;22;20360;-84
2023/07/02 01:11:51;;;;;;;14.80;11.23;;;;;;;;;;12912598;22;20361;-84
2023/07/02 01:16:55;;;;;;;14.93;12.60;;;;;;;;;;12937647;23;20755;-84
2023/07/02 01:22:00;;;;;;;13.77;11.63;;;;;;;;;;12916349;22;20735;-84
2023/07/02 01:27:03;;;;;;;13.33;11.73;;;;;;;;;;12916869;22;20808;-85
2023/07/02 01:32:06;;;;;;;15.70;11.80;;;;;;;;;;12936935;23;20848;-84
2023/07/02 01:37:10;;;;;;;14.47;11.43;;;;;;;;;;12936297;23;20466;-86
2023/07/02 01:42:15;;;;;;;17.07;13.13;;;;;;;;;;12915263;22;20368;-84
2023/07/02 01:47:19;;;;;;;17.13;12.40;;;;;;;;;;12915560;22;20368;-84
2023/07/02 01:52:23;;;;;;;16.93;13.17;;;;;;;;;;12915601;22;20395;-84
2023/07/02 01:57:25;;;;;;;17.40;12.93;;;;;;;;;;12916176;22;20384;-84
2023/07/02 02:02:28;;;;;;;16.55;13.60;;;;;;;;;;12916388;22;20364;-85
2023/07/02 02:07:32;;;;;;;15.85;12.73;;;;;;;;;;12914611;22;20388;-85
2023/07/02 02:12:34;;;;;;;15.93;13.27;;;;;;;;;;12937809;23;20364;-86
2023/07/02 02:17:37;;;;;;;16.67;12.90;;;;;;;;;;12914023;22;20384;-86
2023/07/02 02:22:40;;;;;;;15.52;12.32;;;;;;;;;;12918334;22;20364;-86
2023/07/02 02:27:44;;;;;;;15.70;12.90;;;;;;;;;;12920006;23;21099;-85
2023/07/02 02:32:46;;;;;;;15.70;12.25;;;;;;;;;;12919145;22;20909;-85
2023/07/02 02:37:50;;;;;;;15.93;12.48;;;;;;;;;;12939235;23;20380;-86
2023/07/02 02:42:52;;;;;;;14.35;11.80;;;;;;;;;;12918749;22;20373;-86
2023/07/02 02:47:55;;;;;;;16.33;12.63;;;;;;;;;;12918832;22;20369;-86
2023/07/02 02:52:59;;;;;;;15.47;12.57;;;;;;;;;;12938808;22;20360;-86
2023/07/02 02:58:01;;;;;;;15.43;12.10;;;;;;;;;;12917315;22;20930;-86
2023/07/02 03:03:03;;;;;;;15.90;12.70;;;;;;;;;;12939242;23;20369;-86
2023/07/02 03:08:07;;;;;;;16.20;12.80;;;;;;;;;;12918385;22;20368;-86
2023/07/02 03:13:10;;;;;;;17.38;12.15;;;;;;;;;;12919296;22;20372;-86
2023/07/02 03:18:12;;;;;;;14.53;11.87;;;;;;;;;;12941303;23;20415;-86
2023/07/02 03:23:16;;;;;;;13.40;11.23;;;;;;;;;;12920471;22;20438;-86
2023/07/02 03:28:18;;;;;;;13.23;10.98;;;;;;;;;;12919856;22;20998;-86
2023/07/02 03:33:21;;;;;;;14.32;10.63;;;;;;;;;;12918929;22;20361;-85
2023/07/02 03:38:25;;;;;;;13.47;10.90;;;;;;;;;;12919958;22;20678;-86
2023/07/02 03:43:27;;;;;;;14.90;10.57;;;;;;;;;;12919550;22;20369;-86
2023/07/02 03:48:30;;;;;;;13.37;10.27;;;;;;;;;;12941196;23;20442;-86
2023/07/02 03:53:34;;;;;;;12.23;10.55;;;;;;;;;;12919304;22;20364;-86
2023/07/02 03:58:36;;;;;;;13.23;9.80;;;;;;;;;;12919022;22;20384;-86
2023/07/02 04:03:39;;;;;;;11.57;10.03;;;;;;;;;;12918202;22;20434;-86
2023/07/02 04:08:42;;;;;;;12.48;10.40;;;;;;;;;;12939169;23;20372;-86
2023/07/02 04:13:45;;;;;;;13.00;10.27;;;;;;;;;;12918521;22;20364;-86
2023/07/02 04:18:47;;;;;;;11.45;10.20;;;;;;;;;;12939906;23;20426;-86
2023/07/02 04:23:51;;;;;;;13.70;10.50;;;;;;;;;;12918382;22;20850;-85
2023/07/02 04:28:54;;;;;;;11.32;9.43;;;;;;;;;;12918976;22;20426;-86
2023/07/02 04:33:56;;;;;;;11.27;9.43;;;;;;;;;;12918937;22;20841;-86
2023/07/02 04:39:00;;;;;;;11.77;9.45;;;;;;;;;;12938941;22;20372;-86
2023/07/02 04:44:02;;;;;;;12.57;9.32;;;;;;;;;;12918106;22;20431;-86
2023/07/02 04:49:05;;;;;;;10.68;8.98;;;;;;;;;;12917430;22;20393;-86
2023/07/02 04:54:08;;;;;;;10.97;8.70;;;;;;;;;;12917685;22;20394;-85
2023/07/02 04:59:11;;;;;;;9.07;7.80;;;;;;;;;;12917690;22;20446;-87
2023/07/02 05:04:14;;;;;;;9.25;7.68;;;;;;;;;;12916901;22;20380;-86
2023/07/02 05:09:18;;;;;;;8.88;7.20;;;;;;;;;;12917906;22;20813;-86
2023/07/02 05:14:20;;;;;;;9.37;7.27;;;;;;;;;;12917989;22;20433;-85
2023/07/02 05:19:22;;;;;;;9.50;7.60;;;;;;;;;;12919376;23;20380;-86
2023/07/02 05:24:26;;;;;;;8.82;7.72;;;;;;;;;;12917248;23;20929;-86
2023/07/02 05:29:28;;;;;;;8.73;6.97;;;;;;;;;;12917703;22;20364;-85
2023/07/02 05:34:31;;;;;;;10.75;7.80;;;;;;;;;;12916774;22;20368;-86
2023/07/02 05:39:35;;;;;;;9.53;7.23;;;;;;;;;;12916877;22;20441;-85
2023/07/02 05:44:37;;;;;;;9.93;8.27;;;;;;;;;;12916607;22;20408;-85
2023/07/02 05:49:41;;;;;;;11.63;8.10;;;;;;;;;;12917611;22;20407;-86
2023/07/02 05:54:45;;;;;;;9.70;8.60;;;;;;;;;;12916244;22;20392;-86
2023/07/02 05:59:47;;;;;;;9.32;7.60;;;;;;;;;;12917837;22;20384;-86
2023/07/02 06:04:50;;;;;;;11.35;7.70;;;;;;;;;;12917186;23;20364;-86
2023/07/02 06:09:53;;;;;;;9.50;7.27;;;;;;;;;;12916511;22;20817;-86
2023/07/02 06:14:56;;;;;;;9.65;7.20;;;;;;;;;;12916600;22;20442;-86
2023/07/02 06:19:58;;;;;;;10.00;7.00;;;;;;;;;;12916134;22;20442;-86
2023/07/02 06:25:02;;;;;;;9.37;7.23;;;;;;;;;;12916512;22;20372;-85
2023/07/02 06:30:05;;;;;;;9.85;6.78;;;;;;;;;;12916147;23;20426;-86
2023/07/02 06:35:08;;;;;;;8.88;6.72;;;;;;;;;;12916993;22;20368;-85
2023/07/02 06:40:13;;;;;;;9.30;6.65;;;;;;;;;;12936781;22;20376;-86
2023/07/02 06:45:15;;;;;;;9.10;7.35;;;;;;;;;;12915849;22;20372;-86
2023/07/02 06:50:17;;;;;;;8.33;6.80;;;;;;;;;;12916956;22;20360;-85
2023/07/02 06:55:21;;;;;;;9.48;7.15;;;;;;;;;;12937421;23;20368;-86
2023/07/02 07:00:24;;;;;;;9.77;7.77;;;;;;;;;;12937019;23;20512;-86
2023/07/02 07:05:26;;;;;;;9.30;7.55;;;;;;;;;;12914732;22;20369;-86
2023/07/02 07:10:33;;;;;;;10.15;7.38;;;;;;;;;;12939599;23;20426;-86
2023/07/02 07:15:36;;;;;;;9.02;7.30;;;;;;;;;;12920257;22;20399;-86
2023/07/02 07:20:40;;;;;;;10.35;7.45;;;;;;;;;;12920016;23;20418;-86
2023/07/02 07:25:43;;;;;;;10.63;7.40;;;;;;;;;;12919846;22;20395;-85
2023/07/02 07:30:46;;;;;;;13.32;7.93;;;;;;;;;;12919899;22;20368;-86
2023/07/02 07:35:48;;;;;;;9.35;6.40;;;;;;;;;;12918833;22;20360;-85
2023/07/02 07:40:52;;;;;;;10.33;7.57;;;;;;;;;;12918301;22;20384;-86
2023/07/02 07:45:55;;;;;;;9.93;7.10;;;;;;;;;;12918573;22;20903;-85
2023/07/02 07:50:57;;;;;;;8.38;6.50;;;;;;;;;;12919467;22;20482;-87
2023/07/02 07:56:01;;;;;;;9.45;6.55;;;;;;;;;;12918248;22;20372;-87
2023/07/02 08:01:04;;;;;;;8.98;7.72;;;;;;;;;;12919611;22;20414;-86
2023/07/02 08:06:07;;;;;;;9.10;6.47;;;;;;;;;;12920911;23;21102;-86
2023/07/02 08:11:11;;;;;;;9.82;7.03;;;;;;;;;;12918389;22;20365;-86
2023/07/02 08:16:14;;;;;;;8.70;7.47;;;;;;;;;;12918664;22;20403;-86
2023/07/02 08:21:16;;;;;;;11.57;7.22;;;;;;;;;;12918162;22;20381;-87
2023/07/02 08:26:20;;;;;;;9.85;7.13;;;;;;;;;;12917263;22;20438;-86
2023/07/02 08:31:22;;;;;;;9.40;7.10;;;;;;;;;;12917959;22;20448;-91
2023/07/02 08:36:24;;;;;;;9.85;7.45;;;;;;;;;;12916932;22;20384;-87
2023/07/02 08:41:29;;;;;;;9.73;6.55;;;;;;;;;;12910338;22;21235;-85
2023/07/02 08:46:32;;;;;;;9.95;6.85;;;;;;;;;;12916011;22;20426;-85
2023/07/02 08:51:34;;;;;;;9.00;6.80;;;;;;;;;;12914653;22;21188;-84
2023/07/02 08:56:39;;;;;;;7.97;5.93;;;;;;;;;;12914703;23;20465;-79
2023/07/02 09:01:48;;;;;;;7.95;6.32;;;;;;;;;;12917902;22;20454;-90
2023/07/02 09:06:50;;;;;;;6.80;5.13;;;;;;;;;;12936329;23;20418;-92
2023/07/02 09:11:54;;;;;;;39.83;7.68;;;;;;;;;;12925953;22;20426;-91
2023/07/02 09:17:04;;;;;;;209.13;21.15;;;;;;;;;;12922378;22;20368;-91
2023/07/02 09:22:06;;;;;;;7.63;4.53;;;;;;;;;;12945169;23;20494;-93
2023/07/02 09:27:10;;;;;;;6.73;4.97;;;;;;;;;;12924161;22;20365;-89
2023/07/02 09:32:12;;;;;;;8.68;6.10;;;;;;;;;;12925949;22;20352;-89
2023/07/02 09:37:15;;;;;;;8.57;6.20;;;;;;;;;;12915564;22;20376;-87
2023/07/02 09:42:19;;;;;;;9.67;6.70;;;;;;;;;;12917448;22;20454;-88
2023/07/02 09:47:24;;;;;;;10.93;6.40;;;;;;;;;;12940280;23;20604;-91
2023/07/02 09:52:27;;;;;;;10.60;7.87;;;;;;;;;;12916283;23;20361;-89
2023/07/02 09:57:31;;;;;;;10.50;7.88;;;;;;;;;;12941439;23;20856;-90
2023/07/02 10:02:34;;;;;;;9.45;7.75;;;;;;;;;;12921098;22;20380;-93
2023/07/02 10:07:36;;;;;;;9.73;7.15;;;;;;;;;;12941207;23;20360;-90
2023/07/02 10:12:47;;;;;;;9.35;7.30;;;;;;;;;;12920430;22;20360;-95
2023/07/02 10:17:56;;;;;;;11.40;8.07;;;;;;;;;;12922317;22;20361;-95
2023/07/02 10:22:59;;;;;;;9.98;7.72;;;;;;;;;;12922375;22;20384;-93
2023/07/02 10:28:14;;;;;;;14.80;8.88;;;;;;;;;;12921627;22;20364;-93
2023/07/02 10:33:18;;;;;;;14.55;8.93;;;;;;;;;;12962094;22;20380;-82
2023/07/02 10:38:22;;;;;;;12.85;8.35;;;;;;;;;;13038898;22;20365;-83
2023/07/02 10:43:30;;;;;;;10.68;7.82;;;;;;;;;;13042398;22;20385;-81
2023/07/02 10:48:32;;;;;;;9.13;7.05;;;;;;;;;;13050248;22;20418;-90
2023/07/02 10:53:34;;;;;;;9.43;7.32;;;;;;;;;;13051157;22;21043;-90
2023/07/02 10:58:44;;;;;;;10.85;8.60;;;;;;;;;;13051047;22;20357;-77
2023/07/02 11:03:47;;;;;;;10.30;8.23;;;;;;;;;;13052105;22;20377;-92
2023/07/02 11:08:49;;;;;;;18.95;13.88;;;;;;;;;;13064337;22;20369;-93
2023/07/02 11:13:54;;;;;;;8.98;7.65;;;;;;;;;;13056888;22;20364;-93
2023/07/02 11:19:10;;;;;;;12.90;8.48;;;;;;;;;;13058355;22;20438;-94
2023/07/02 11:24:12;;;;;;;9.23;7.30;;;;;;;;;;13058506;22;20852;-93
2023/07/02 11:29:20;;;;;;;9.18;6.95;;;;;;;;;;13043399;22;20385;-94
2023/07/02 11:34:23;;;;;;;8.75;7.70;;;;;;;;;;13045495;22;20377;-93
2023/07/02 11:39:26;;;;;;;8.83;7.90;;;;;;;;;;13040787;22;20473;-93
2023/07/02 11:44:29;;;;;;;7.87;7.07;;;;;;;;;;13040677;22;20910;-93
2023/07/02 11:49:32;;;;;;;9.48;7.45;;;;;;;;;;13040150;22;20361;-93
2023/07/02 11:54:34;;;;;;;8.25;6.53;;;;;;;;;;13041133;22;20377;-93
2023/07/02 11:59:38;;;;;;;7.47;6.77;;;;;;;;;;13038341;22;20407;-94
2023/07/02 12:04:40;;;;;;;9.23;7.22;;;;;;;;;;13028117;22;20824;-89
2023/07/02 12:09:42;;;;;;;8.77;7.43;;;;;;;;;;13048080;22;20920;-93
2023/07/02 12:14:46;;;;;;;8.10;6.72;;;;;;;;;;13041604;22;20607;-94
2023/07/02 12:19:48;;;;;;;8.32;6.20;;;;;;;;;;13037523;22;20446;-93
2023/07/02 12:24:53;;;;;;;13.73;6.82;;;;;;;;;;13046856;22;20365;-93
2023/07/02 12:29:57;;;;;;;10.10;6.30;;;;;;;;;;13047908;22;20910;-92
2023/07/02 12:34:59;;;;;;;7.95;6.35;;;;;;;;;;13069959;22;20438;-91
2023/07/02 12:40:03;;;;;;;6.93;5.78;;;;;;;;;;13069733;22;20369;-92
2023/07/02 12:45:08;;;;;;;6.93;6.00;;;;;;;;;;13044980;22;20391;-91
2023/07/02 12:50:11;;;;;;;8.43;6.20;;;;;;;;;;13043942;22;20671;-92
2023/07/02 12:55:14;;;;;;;6.40;5.80;;;;;;;;;;13042028;22;20407;-81
2023/07/02 13:00:18;;;;;;;7.90;6.30;;;;;;;;;;13048063;22;20918;-90
2023/07/02 13:05:20;;;;;;;6.67;5.90;;;;;;;;;;13044509;22;20361;-91
2023/07/02 13:10:23;;;;;;;6.97;5.63;;;;;;;;;;13047578;22;20361;-91
2023/07/02 13:15:27;;;;;;;7.00;6.28;;;;;;;;;;13046929;22;20361;-95
2023/07/02 13:20:30;;;;;;;7.00;6.28;;;;;;;;;;13046517;22;20381;-91
2023/07/02 13:25:32;;;;;;;9.20;6.75;;;;;;;;;;13068292;22;20422;-91
2023/07/02 13:30:37;;;;;;;6.63;5.93;;;;;;;;;;13040484;22;20832;-93
2023/07/02 13:35:40;;;;;;;7.03;6.00;;;;;;;;;;13043555;22;20381;-93
2023/07/02 13:40:42;;;;;;;7.13;6.10;;;;;;;;;;13043039;22;20384;-92
2023/07/02 13:45:46;;;;;;;8.57;6.03;;;;;;;;;;13041828;22;20856;-92
2023/07/02 13:50:48;;;;;;;7.63;6.32;;;;;;;;;;13039434;22;20368;-88
2023/07/02 13:55:51;;;;;;;7.78;6.57;;;;;;;;;;13037730;22;20365;-85
2023/07/02 14:00:55;;;;;;;7.85;6.55;;;;;;;;;;13035658;22;20438;-86
2023/07/02 14:05:57;;;;;;;7.68;6.03;;;;;;;;;;13038394;22;20357;-86
2023/07/02 14:10:59;;;;;;;6.85;6.20;;;;;;;;;;13037900;22;20365;-86
2023/07/02 14:16:03;;;;;;;7.20;6.28;;;;;;;;;;13039530;22;20357;-86
2023/07/02 14:21:06;;;;;;;8.98;6.65;;;;;;;;;;13064590;22;20493;-85
2023/07/02 14:26:08;;;;;;;7.28;6.57;;;;;;;;;;13043211;22;20996;-86
2023/07/02 14:31:12;;;;;;;7.05;6.35;;;;;;;;;;13042656;22;20624;-86
2023/07/02 14:36:14;;;;;;;8.07;6.37;;;;;;;;;;13042341;22;20647;-85
2023/07/02 14:41:17;;;;;;;7.15;6.45;;;;;;;;;;13042291;22;20559;-86
2023/07/02 14:46:22;;;;;;;7.30;6.60;;;;;;;;;;13043657;22;20419;-86
2023/07/02 14:51:25;;;;;;;7.88;5.85;;;;;;;;;;13042455;22;20430;-86
2023/07/02 14:56:27;;;;;;;6.70;6.05;;;;;;;;;;13041227;22;20357;-86
2023/07/02 15:01:31;;;;;;;8.87;6.40;;;;;;;;;;13040826;22;20446;-86
2023/07/02 15:06:34;;;;;;;8.00;6.35;;;;;;;;;;13041843;22;20357;-86
2023/07/02 15:11:37;;;;;;;7.32;6.38;;;;;;;;;;13040582;22;20418;-86
2023/07/02 15:16:40;;;;;;;8.07;6.60;;;;;;;;;;13045540;22;20381;-86
2023/07/02 15:21:43;;;;;;;6.30;5.70;;;;;;;;;;13041945;22;20377;-86
2023/07/02 15:26:45;;;;;;;6.90;5.88;;;;;;;;;;13064114;22;20414;-86
2023/07/02 15:31:50;;;;;;;7.60;6.25;;;;;;;;;;13049326;22;20396;-83
2023/07/02 15:36:52;;;;;;;7.68;6.03;;;;;;;;;;13040308;22;20364;-83
2023/07/02 15:41:54;;;;;;;7.15;5.80;;;;;;;;;;13034218;22;20709;-84
2023/07/02 15:46:58;;;;;;;7.10;5.90;;;;;;;;;;13034134;22;20410;-85
2023/07/02 15:52:00;;;;;;;6.05;5.30;;;;;;;;;;13025964;22;20426;-86
2023/07/02 15:57:03;;;;;;;6.97;5.90;;;;;;;;;;13037541;22;20357;-86
2023/07/02 16:02:08;;;;;;;7.20;5.50;;;;;;;;;;13036171;22;20446;-86
2023/07/02 16:07:10;;;;;;;6.57;5.57;;;;;;;;;;13034067;22;20368;-85
2023/07/02 16:12:13;;;;;;;6.30;5.40;;;;;;;;;;13032355;22;20407;-86
2023/07/02 16:17:16;;;;;;;7.60;5.95;;;;;;;;;;13037868;22;20357;-86
2023/07/02 16:22:18;;;;;;;5.93;5.23;;;;;;;;;;13035183;22;20381;-85
2023/07/02 16:27:21;;;;;;;7.60;5.50;;;;;;;;;;13034408;22;20365;-85
2023/07/02 16:32:28;;;;;;;6.53;5.43;;;;;;;;;;13035477;22;20369;-79
2023/07/02 16:37:30;;;;;;;8.55;5.22;;;;;;;;;;13032560;22;20361;-85
2023/07/02 16:42:33;;;;;;;6.63;5.70;;;;;;;;;;13037636;22;20380;-86
2023/07/02 16:47:36;;;;;;;5.60;5.07;;;;;;;;;;13036224;22;20411;-85
2023/07/02 16:52:38;;;;;;;5.80;5.20;;;;;;;;;;13035680;22;21003;-84
2023/07/02 16:57:41;;;;;;;7.38;5.10;;;;;;;;;;13036749;22;20874;-84
2023/07/02 17:02:44;;;;;;;6.13;5.53;;;;;;;;;;13033334;22;20377;-84
2023/07/02 17:07:47;;;;;;;6.63;5.65;;;;;;;;;;13032814;22;20391;-84
2023/07/02 17:12:49;;;;;;;7.10;5.10;;;;;;;;;;13036223;22;20368;-85
2023/07/02 17:17:54;;;;;;;6.63;5.90;;;;;;;;;;13032961;22;21044;-83
2023/07/02 17:22:56;;;;;;;6.95;5.22;;;;;;;;;;13031628;22;20544;-84
2023/07/02 17:27:59;;;;;;;6.55;5.30;;;;;;;;;;13053886;22;20365;-85
2023/07/02 17:33:02;;;;;;;6.43;5.32;;;;;;;;;;13030189;22;20365;-85
2023/07/02 17:38:05;;;;;;;7.40;5.40;;;;;;;;;;13035908;22;20460;-87
2023/07/02 17:43:07;;;;;;;5.57;5.07;;;;;;;;;;13037101;22;20434;-85
2023/07/02 17:48:11;;;;;;;6.30;5.30;;;;;;;;;;13036820;22;20368;-86
2023/07/02 17:53:13;;;;;;;5.93;5.17;;;;;;;;;;13037502;22;20365;-86
2023/07/02 17:58:15;;;;;;;6.27;5.20;;;;;;;;;;13036950;22;20361;-87
2023/07/02 18:03:19;;;;;;;8.02;5.57;;;;;;;;;;13058727;22;20667;-87
2023/07/02 18:08:22;;;;;;;7.80;5.23;;;;;;;;;;13058601;22;20364;-84
2023/07/02 18:13:24;;;;;;;5.93;4.97;;;;;;;;;;13026277;22;20845;-87
2023/07/02 18:18:28;;;;;;;5.70;5.10;;;;;;;;;;13026617;22;20373;-87
2023/07/02 18:23:30;;;;;;;6.47;4.80;;;;;;;;;;13000626;22;20438;-86
2023/07/02 18:28:32;;;;;;;7.63;5.20;;;;;;;;;;13027480;22;21006;-86
2023/07/02 18:33:36;;;;;;;7.03;5.27;;;;;;;;;;13028902;22;20373;-81
2023/07/02 18:38:38;;;;;;;7.15;5.10;;;;;;;;;;13032176;22;20369;-85
2023/07/02 18:43:41;;;;;;;6.07;5.47;;;;;;;;;;13028301;22;20377;-84
2023/07/02 18:48:45;;;;;;;5.90;5.30;;;;;;;;;;13037498;22;20453;-87
2023/07/02 18:53:47;;;;;;;6.68;5.68;;;;;;;;;;13043961;22;20682;-87
2023/07/02 18:58:49;;;;;;;6.68;5.63;;;;;;;;;;13030361;22;20497;-88
2023/07/02 19:03:54;;;;;;;6.68;6.00;;;;;;;;;;13031021;22;20849;-86
2023/07/02 19:08:57;;;;;;;6.47;5.65;;;;;;;;;;13033274;22;20377;-87
2023/07/02 19:13:59;;;;;;;6.20;5.60;;;;;;;;;;13036069;22;20402;-87
2023/07/02 19:19:03;;;;;;;9.37;6.33;;;;;;;;;;13038620;22;20380;-87
2023/07/02 19:24:05;;;;;;;6.82;6.10;;;;;;;;;;13050246;22;20392;-88
2023/07/02 19:29:12;;;;;;;6.80;5.83;;;;;;;;;;13032726;22;20767;-88
2023/07/02 19:34:18;;;;;;;6.88;6.18;;;;;;;;;;13034512;22;20372;-87
2023/07/02 19:39:21;;;;;;;7.30;6.50;;;;;;;;;;13034353;22;20373;-87
2023/07/02 19:44:23;;;;;;;6.97;6.27;;;;;;;;;;13037751;22;20389;-86
2023/07/02 19:49:27;;;;;;;7.73;6.93;;;;;;;;;;13034911;22;20422;-85
2023/07/02 19:54:29;;;;;;;7.95;7.10;;;;;;;;;;13035662;22;20458;-87
2023/07/02 19:59:31;;;;;;;8.10;6.38;;;;;;;;;;13037497;22;20377;-87
2023/07/02 20:04:35;;;;;;;7.40;6.63;;;;;;;;;;13035119;22;20938;-86
2023/07/02 20:09:40;;;;;;;8.60;6.77;;;;;;;;;;13034726;22;20377;-87
2023/07/02 20:14:44;;;;;;;7.50;6.70;;;;;;;;;;13035680;22;20697;-88
2023/07/02 20:19:51;;;;;;;7.82;7.03;;;;;;;;;;13035241;22;20403;-87
2023/07/02 20:24:53;;;;;;;8.53;7.40;;;;;;;;;;13033871;22;20711;-88
2023/07/02 20:29:55;;;;;;;9.57;8.18;;;;;;;;;;13035626;22;20377;-88
2023/07/02 20:34:59;;;;;;;9.40;8.40;;;;;;;;;;13034948;22;20442;-88
2023/07/02 20:40:10;;;;;;;11.43;9.60;;;;;;;;;;13035113;22;20723;-87
2023/07/02 20:45:13;;;;;;;10.48;9.15;;;;;;;;;;13035475;22;20380;-87
2023/07/02 20:50:17;;;;;;;10.23;9.10;;;;;;;;;;13037065;22;20381;-87
2023/07/02 20:55:19;;;;;;;9.97;8.90;;;;;;;;;;13038059;22;20438;-88
2023/07/02 21:00:22;;;;;;;10.70;9.00;;;;;;;;;;13040045;22;20381;-88
2023/07/02 21:05:25;;;;;;;11.85;10.40;;;;;;;;;;13039088;22;20466;-87
2023/07/02 21:10:28;;;;;;;12.05;10.57;;;;;;;;;;13039485;22;20377;-87
2023/07/02 21:15:30;;;;;;;12.75;10.60;;;;;;;;;;13037511;22;20373;-88
2023/07/02 21:20:34;;;;;;;11.57;10.20;;;;;;;;;;13036235;22;20377;-88
2023/07/02 21:25:36;;;;;;;12.80;11.18;;;;;;;;;;13039106;22;20381;-88
2023/07/02 21:30:38;;;;;;;13.23;11.63;;;;;;;;;;13038537;22;20399;-88
2023/07/02 21:35:42;;;;;;;12.82;11.20;;;;;;;;;;13038978;22;20511;-86
2023/07/02 21:40:44;;;;;;;12.45;11.15;;;;;;;;;;13039424;22;20446;-88
2023/07/02 21:45:53;;;;;;;14.07;11.25;;;;;;;;;;13043917;22;20376;-88
2023/07/02 21:50:57;;;;;;;13.13;11.20;;;;;;;;;;13055019;22;21215;-87
2023/07/02 21:55:59;;;;;;;12.23;10.77;;;;;;;;;;13043591;22;20357;-88
2023/07/02 22:01:01;;;;;;;12.18;10.77;;;;;;;;;;13042313;22;20365;-88
2023/07/02 22:06:05;;;;;;;12.30;10.43;;;;;;;;;;13041497;22;20756;-87
2023/07/02 22:11:13;;;;;;;12.98;11.43;;;;;;;;;;13041936;22;20361;-88
2023/07/02 22:16:15;;;;;;;12.13;10.50;;;;;;;;;;13042062;22;20364;-87
2023/07/02 22:21:19;;;;;;;11.98;10.68;;;;;;;;;;13042950;22;20365;-87
2023/07/02 22:26:21;;;;;;;10.73;9.63;;;;;;;;;;13042053;22;20381;-88
2023/07/02 22:31:23;;;;;;;10.68;9.57;;;;;;;;;;13043680;22;20430;-88
2023/07/02 22:36:27;;;;;;;10.63;9.52;;;;;;;;;;13041093;22;20365;-86
2023/07/02 22:41:30;;;;;;;9.77;8.73;;;;;;;;;;13044831;22;20361;-86
2023/07/02 22:46:32;;;;;;;11.00;9.77;;;;;;;;;;13046728;22;20433;-87
2023/07/02 22:51:36;;;;;;;13.07;10.67;;;;;;;;;;13049178;22;20844;-86
2023/07/02 22:56:38;;;;;;;11.18;9.98;;;;;;;;;;13045001;22;20356;-85
2023/07/02 23:01:41;;;;;;;10.68;9.57;;;;;;;;;;13044669;22;20391;-87
2023/07/02 23:06:45;;;;;;;10.50;9.40;;;;;;;;;;13045955;22;20380;-87
2023/07/02 23:11:48;;;;;;;10.10;9.07;;;;;;;;;;13047228;22;20352;-87
2023/07/02 23:16:50;;;;;;;10.90;9.55;;;;;;;;;;13046660;22;20369;-87
2023/07/02 23:21:54;;;;;;;11.83;9.40;;;;;;;;;;13047070;22;20693;-87
2023/07/02 23:26:56;;;;;;;10.80;9.70;;;;;;;;;;13046571;22;20415;-86
2023/07/02 23:31:59;;;;;;;10.70;9.57;;;;;;;;;;13046697;22;20438;-87
2023/07/02 23:37:03;;;;;;;10.30;9.20;;;;;;;;;;13044587;22;20822;-86
2023/07/02 23:42:06;;;;;;;10.52;9.43;;;;;;;;;;12952555;22;20494;-80
2023/07/02 23:47:09;;;;;;;10.77;9.68;;;;;;;;;;12915176;22;20380;-86
2023/07/02 23:52:12;;;;;;;10.97;9.87;;;;;;;;;;12915971;22;20368;-87
2023/07/02 23:57:14;;;;;;;12.90;10.40;;;;;;;;;;12939645;23;20381;-85
